createdAt,value
2022-12-16T00:01:57.237Z,238.57
2022-12-16T00:04:28.146Z,252.40
2022-12-16T00:07:05.330Z,256.20
2022-12-16T00:09:35.853Z,263.57
2022-12-16T00:12:08.133Z,272.93
2022-12-16T00:14:57.699Z,278.53
2022-12-16T00:17:31.298Z,273.03
2022-12-16T00:20:07.812Z,272.93
2022-12-16T00:22:51.755Z,289.97
2022-12-16T00:25:19.601Z,305.43
2022-12-16T00:27:58.749Z,288.53
2022-12-16T00:30:32.791Z,299.37
2022-12-16T00:33:09.355Z,289.27
2022-12-16T00:35:51.878Z,302.53
2022-12-16T00:38:28.731Z,296.00
2022-12-16T00:41:03.906Z,289.47
2022-12-16T00:43:41.274Z,305.83
2022-12-16T00:46:14.900Z,283.50
2022-12-16T00:48:45.388Z,274.03
2022-12-16T00:51:14.276Z,286.40
2022-12-16T00:53:47.253Z,312.00
2022-12-16T00:56:16.575Z,343.53
2022-12-16T00:58:45.929Z,336.13
2022-12-16T01:01:15.986Z,286.67
2022-12-16T01:03:47.703Z,372.67
2022-12-16T01:06:57.971Z,321.30
2022-12-16T01:09:36.166Z,343.33
2022-12-16T01:12:10.992Z,297.90
2022-12-16T01:14:41.636Z,336.87
2022-12-16T01:17:12.149Z,342.60
2022-12-16T01:19:41.165Z,297.57
2022-12-16T01:22:11.585Z,300.63
2022-12-16T01:24:43.003Z,283.47
2022-12-16T01:27:11.638Z,312.27
2022-12-16T01:29:40.483Z,280.63
2022-12-16T01:32:10.499Z,260.87
2022-12-16T01:34:39.097Z,310.00
2022-12-16T01:37:07.762Z,325.07
2022-12-16T01:39:37.536Z,269.10
2022-12-16T01:42:08.404Z,293.60
2022-12-16T01:44:37.161Z,275.97
2022-12-16T01:47:08.053Z,277.17
2022-12-16T01:50:01.246Z,263.43
2022-12-16T01:52:32.813Z,256.97
2022-12-16T01:55:10.490Z,251.60
2022-12-16T01:57:47.929Z,259.77
2022-12-16T02:00:16.927Z,248.27
2022-12-16T02:02:47.890Z,262.37
2022-12-16T02:05:23.281Z,247.53
2022-12-16T02:08:09.734Z,235.50
2022-12-16T02:10:47.604Z,253.27
2022-12-16T02:13:44.897Z,246.03
2022-12-16T02:16:28.757Z,223.97
2022-12-16T02:19:01.659Z,243.63
2022-12-16T02:21:50.050Z,242.63
2022-12-16T02:24:29.414Z,221.40
2022-12-16T02:27:08.536Z,236.83
2022-12-16T02:29:49.784Z,226.53
2022-12-16T02:32:36.735Z,221.80
2022-12-16T02:35:11.302Z,217.43
2022-12-16T02:37:45.973Z,232.70
2022-12-16T02:40:28.458Z,228.53
2022-12-16T02:43:15.029Z,210.00
2022-12-16T02:45:45.293Z,222.43
2022-12-16T02:48:13.957Z,271.97
2022-12-16T02:50:45.890Z,224.83
2022-12-16T02:53:17.673Z,230.20
2022-12-16T02:56:27.136Z,245.50
2022-12-16T02:59:07.291Z,266.67
2022-12-16T03:05:02.011Z,235.13
2022-12-16T03:07:33.868Z,223.90
2022-12-16T03:10:05.386Z,202.90
2022-12-16T03:12:36.513Z,204.00
2022-12-16T03:15:07.794Z,203.40
2022-12-16T03:17:39.989Z,182.73
2022-12-16T03:20:14.420Z,189.43
2022-12-16T03:22:48.122Z,188.93
2022-12-16T03:25:16.900Z,188.73
2022-12-16T03:28:17.607Z,169.47
2022-12-16T03:30:49.314Z,157.17
2022-12-16T03:33:30.017Z,154.63
2022-12-16T03:36:09.038Z,150.50
2022-12-16T03:38:39.970Z,149.90
2022-12-16T03:41:09.810Z,150.87
2022-12-16T03:43:42.191Z,149.60
2022-12-16T03:46:11.925Z,144.27
2022-12-16T03:48:49.099Z,145.50
2022-12-16T03:51:18.761Z,123.37
2022-12-16T03:53:47.826Z,120.67
2022-12-16T03:56:16.569Z,118.27
2022-12-16T03:58:47.148Z,114.40
2022-12-16T04:01:16.064Z,115.80
2022-12-16T04:03:44.747Z,105.50
2022-12-16T04:06:15.560Z,107.37
2022-12-16T04:08:44.215Z,102.83
2022-12-16T04:11:31.053Z,97.07
2022-12-16T04:14:17.917Z,96.93
2022-12-16T04:17:04.720Z,89.73
2022-12-16T04:19:55.267Z,80.53
2022-12-16T04:22:50.542Z,94.80
2022-12-16T04:25:22.413Z,95.00
2022-12-16T04:27:51.822Z,100.00
2022-12-16T04:30:32.354Z,118.60
2022-12-16T04:33:21.986Z,124.07
2022-12-16T04:36:08.379Z,122.97
2022-12-16T04:38:55.098Z,115.40
2022-12-16T04:41:41.656Z,112.00
2022-12-16T04:44:28.561Z,120.13
2022-12-16T04:47:16.267Z,124.40
2022-12-16T04:50:09.018Z,117.80
2022-12-16T04:55:48.212Z,119.77
2022-12-16T04:58:34.719Z,111.63
2022-12-16T05:01:21.562Z,110.90
2022-12-16T05:04:08.464Z,97.20
2022-12-16T05:06:55.005Z,97.90
2022-12-16T05:09:41.545Z,104.50
2022-12-16T05:12:28.386Z,105.40
2022-12-16T05:15:17.937Z,84.77
2022-12-16T05:18:04.789Z,94.50
2022-12-16T05:20:51.442Z,97.00
2022-12-16T05:24:53.050Z,95.67
2022-12-16T05:30:30.531Z,90.80
2022-12-16T05:33:20.682Z,94.23
2022-12-16T05:36:12.880Z,89.83
2022-12-16T05:38:59.200Z,91.63
2022-12-16T05:41:47.484Z,89.47
2022-12-16T05:44:34.242Z,94.20
2022-12-16T05:54:16.387Z,99.80
2022-12-16T05:57:10.056Z,103.60
2022-12-16T06:06:25.249Z,99.73
2022-12-16T06:19:30.299Z,113.30
2022-12-16T06:21:51.344Z,112.77
2022-12-16T06:22:20.189Z,110.20
2022-12-16T06:25:40.281Z,114.03
2022-12-16T06:28:40.965Z,112.77
2022-12-16T06:31:32.844Z,108.13
2022-12-16T06:34:19.825Z,120.27
2022-12-16T06:37:18.857Z,106.73
2022-12-16T06:40:15.468Z,106.03
2022-12-16T06:43:10.316Z,104.30
2022-12-16T06:49:16.033Z,109.97
2022-12-16T06:53:07.386Z,108.50
2022-12-16T06:56:11.998Z,104.93
2022-12-16T07:09:04.796Z,85.70
2022-12-16T07:22:01.818Z,84.37
2022-12-16T07:25:07.695Z,86.87
2022-12-16T07:34:42.007Z,84.60
2022-12-16T07:38:06.226Z,154.63
2022-12-16T07:41:54.091Z,84.47
2022-12-16T07:44:25.608Z,84.27
2022-12-16T07:47:14.757Z,94.13
2022-12-16T07:53:31.099Z,94.47
2022-12-16T08:02:41.796Z,103.03
2022-12-16T08:05:47.732Z,106.77
2022-12-16T08:08:34.502Z,91.80
2022-12-16T08:11:23.358Z,91.30
2022-12-16T08:14:10.418Z,91.00
2022-12-16T08:17:01.357Z,99.57
2022-12-16T08:19:50.709Z,100.80
2022-12-16T08:22:39.893Z,99.20
2022-12-16T08:29:27.331Z,100.43
2022-12-16T08:42:25.166Z,90.17
2022-12-16T08:45:22.616Z,82.67
2022-12-16T08:48:30.512Z,88.40
2022-12-16T09:01:24.349Z,94.37
2022-12-16T09:28:53.187Z,108.47
2022-12-16T09:31:47.307Z,113.03
2022-12-16T09:38:36.921Z,111.57
2022-12-16T09:45:20.164Z,93.50
2022-12-16T09:48:18.819Z,95.33
2022-12-16T09:51:11.105Z,102.27
2022-12-16T09:53:59.408Z,101.37
2022-12-16T09:56:48.712Z,95.63
2022-12-16T09:59:47.779Z,90.33
2022-12-16T10:02:43.432Z,84.23
2022-12-16T10:09:23.900Z,85.17
2022-12-16T10:12:33.973Z,98.83
2022-12-16T10:15:39.033Z,86.90
2022-12-16T10:18:30.504Z,93.00
2022-12-16T10:21:32.409Z,90.47
2022-12-16T10:24:46.419Z,96.83
2022-12-16T10:27:52.902Z,86.67
2022-12-16T10:30:39.738Z,86.13
2022-12-16T10:33:29.557Z,83.17
2022-12-16T10:36:18.764Z,90.17
2022-12-16T10:39:16.723Z,83.10
2022-12-16T10:42:06.916Z,84.93
2022-12-16T10:45:14.750Z,78.37
2022-12-16T10:47:54.264Z,80.83
2022-12-16T10:50:43.620Z,72.70
2022-12-16T10:53:40.098Z,74.00
2022-12-16T10:56:43.925Z,71.15
2022-12-16T10:59:34.143Z,74.83
2022-12-16T11:02:36.488Z,72.47
2022-12-16T11:05:43.189Z,71.57
2022-12-16T11:08:46.586Z,77.62
2022-12-16T11:11:49.943Z,71.25
2022-12-16T11:15:28.033Z,75.23
2022-12-16T11:17:43.318Z,73.78
2022-12-16T11:20:43.527Z,71.63
2022-12-16T11:23:44.610Z,68.80
2022-12-16T11:26:42.724Z,67.75
2022-12-16T11:29:35.288Z,61.53
2022-12-16T11:33:04.535Z,63.83
2022-12-16T11:35:54.114Z,60.17
2022-12-16T11:38:50.088Z,58.95
2022-12-16T11:41:50.196Z,59.77
2022-12-16T11:54:20.267Z,51.58
2022-12-16T11:57:17.886Z,54.93
2022-12-16T12:00:26.935Z,51.92
2022-12-16T12:03:45.314Z,55.45
2022-12-16T12:07:14.771Z,56.23
2022-12-16T12:10:08.044Z,54.80
2022-12-16T12:16:31.950Z,53.52
2022-12-16T12:19:39.402Z,50.65
2022-12-16T12:22:33.835Z,53.87
2022-12-16T12:25:47.056Z,61.90
2022-12-16T12:32:06.781Z,48.33
2022-12-16T12:35:31.189Z,49.67
2022-12-16T12:38:44.833Z,45.50
2022-12-16T12:41:42.440Z,47.35
2022-12-16T12:44:48.874Z,55.60
2022-12-16T12:47:40.011Z,52.20
2022-12-16T12:50:29.593Z,48.23
2022-12-16T12:53:39.267Z,47.05
2022-12-16T12:56:53.151Z,40.95
2022-12-16T12:59:51.788Z,45.98
2022-12-16T13:02:42.789Z,44.05
2022-12-16T13:05:41.728Z,48.70
2022-12-16T13:09:01.819Z,37.98
2022-12-16T13:25:38.848Z,49.13
2022-12-16T13:28:33.122Z,49.42
2022-12-16T13:31:31.925Z,48.90
2022-12-16T13:34:23.678Z,54.08
2022-12-16T13:51:03.429Z,52.33
2022-12-16T13:54:02.083Z,54.83
2022-12-16T13:57:04.969Z,54.03
2022-12-16T13:59:52.235Z,57.40
2022-12-16T14:02:53.245Z,64.50
2022-12-16T14:05:43.184Z,65.87
2022-12-16T14:08:40.596Z,58.75
2022-12-16T14:11:33.304Z,59.25
2022-12-16T14:17:46.591Z,61.73
2022-12-16T14:20:48.335Z,70.83
2022-12-16T14:30:57.059Z,53.90
2022-12-16T14:57:51.707Z,68.65
2022-12-16T15:00:43.528Z,59.80
2022-12-16T15:03:56.272Z,57.00
2022-12-16T15:07:02.752Z,57.90
2022-12-16T15:10:00.277Z,62.43
2022-12-16T15:13:01.199Z,59.93
2022-12-16T15:26:44.283Z,56.00
2022-12-16T15:29:52.285Z,55.37
2022-12-16T15:32:50.875Z,52.95
2022-12-16T15:35:49.683Z,59.50
2022-12-16T15:39:38.290Z,53.65
2022-12-16T16:00:00.178Z,57.93
2022-12-16T16:02:50.203Z,56.57
2022-12-16T16:05:45.993Z,48.63
2022-12-16T16:08:32.838Z,37.73
2022-12-16T16:11:21.811Z,45.83
2022-12-16T16:14:14.826Z,56.00
2022-12-16T16:17:15.401Z,48.63
2022-12-16T16:20:04.237Z,41.23
2022-12-16T16:23:09.683Z,36.28
2022-12-16T16:25:52.196Z,32.33
2022-12-16T16:28:48.975Z,36.80
2022-12-16T16:35:10.970Z,42.20
2022-12-16T16:37:57.572Z,35.50
2022-12-16T16:52:26.104Z,26.77
2022-12-16T17:05:15.090Z,28.77
2022-12-16T17:13:02.820Z,27.00
2022-12-16T17:19:52.356Z,28.07
2022-12-16T17:22:39.178Z,37.95
2022-12-16T17:25:31.200Z,29.63
2022-12-16T17:41:39.716Z,27.37
2022-12-16T17:44:28.405Z,33.50
2022-12-16T17:50:38.510Z,24.00
2022-12-16T17:53:29.081Z,16.37
2022-12-16T18:06:46.642Z,24.27
2022-12-16T18:09:33.142Z,22.40
2022-12-16T18:12:21.554Z,21.20
2022-12-16T18:15:08.133Z,25.27
2022-12-16T18:17:54.310Z,31.17
2022-12-16T18:20:40.829Z,28.17
2022-12-16T18:23:27.101Z,24.87
2022-12-16T18:26:19.793Z,28.70
2022-12-16T18:29:09.030Z,27.37
2022-12-16T18:31:59.860Z,25.47
2022-12-16T18:35:04.628Z,28.13
2022-12-16T18:37:53.748Z,28.90
2022-12-16T18:40:41.415Z,30.33
2022-12-16T18:43:27.920Z,28.27
2022-12-16T18:46:15.624Z,28.27
2022-12-16T18:49:02.536Z,34.77
2022-12-16T18:51:49.226Z,26.67
2022-12-16T18:54:35.630Z,26.53
2022-12-16T18:57:22.174Z,45.43
2022-12-16T19:00:09.155Z,29.77
2022-12-16T19:02:58.291Z,29.10
2022-12-16T19:05:58.542Z,30.70
2022-12-16T19:08:42.743Z,29.27
2022-12-16T19:18:51.518Z,39.13
2022-12-16T19:31:08.462Z,22.57
2022-12-16T19:37:27.507Z,27.80
2022-12-16T19:47:55.586Z,175.40
2022-12-16T19:50:56.567Z,28.63
2022-12-16T19:53:50.499Z,44.88
2022-12-16T20:00:14.468Z,163.20
2022-12-16T20:03:02.113Z,24.47
2022-12-16T20:05:49.309Z,23.03
2022-12-16T20:12:21.208Z,25.37
2022-12-16T20:18:33.462Z,28.87
2022-12-16T20:24:33.165Z,48.97
2022-12-16T20:27:19.870Z,39.10
2022-12-16T20:30:09.323Z,33.23
2022-12-16T20:33:05.790Z,32.87
2022-12-16T20:35:56.136Z,32.53
2022-12-16T20:38:47.039Z,47.23
2022-12-16T20:41:33.690Z,32.80
2022-12-16T20:44:22.126Z,49.73
2022-12-16T20:47:08.914Z,57.17
2022-12-16T20:50:04.081Z,43.40
2022-12-16T20:52:51.249Z,36.37
2022-12-16T21:10:03.482Z,43.93
2022-12-16T21:19:39.142Z,52.60
2022-12-16T21:22:38.361Z,53.00
2022-12-16T21:36:03.090Z,61.90
2022-12-16T21:38:50.086Z,68.73
2022-12-16T21:41:37.687Z,57.57
2022-12-16T21:44:26.054Z,54.10
2022-12-16T21:47:14.065Z,48.43
2022-12-16T21:53:12.083Z,56.30
2022-12-16T21:55:59.829Z,56.37
2022-12-16T21:58:47.173Z,50.30
2022-12-16T22:01:34.232Z,53.00
2022-12-16T22:04:21.563Z,54.30
2022-12-16T22:07:08.899Z,61.93
2022-12-16T22:09:56.279Z,55.57
2022-12-16T22:12:43.263Z,60.03
2022-12-16T22:15:29.766Z,55.17
2022-12-16T22:18:16.600Z,49.67
2022-12-16T22:21:03.451Z,51.67
2022-12-16T22:23:50.257Z,66.43
2022-12-16T22:26:37.059Z,59.07
2022-12-16T22:29:23.557Z,60.80
2022-12-16T22:32:10.016Z,66.03
2022-12-16T22:34:56.603Z,56.97
2022-12-16T22:37:44.706Z,63.17
2022-12-16T22:40:31.547Z,64.97
2022-12-16T22:43:18.445Z,70.37
2022-12-16T22:46:05.428Z,57.97
2022-12-16T22:48:51.941Z,66.63
2022-12-16T22:51:38.457Z,67.43
2022-12-16T22:54:24.788Z,63.60
2022-12-16T22:57:11.432Z,67.90
2022-12-16T22:59:57.852Z,68.07
2022-12-16T23:02:44.519Z,66.97
2022-12-16T23:05:31.473Z,68.57
2022-12-16T23:08:17.896Z,67.23
2022-12-16T23:11:05.541Z,70.90
2022-12-16T23:13:51.976Z,61.33
2022-12-16T23:16:39.174Z,63.60
2022-12-16T23:19:25.218Z,64.07
2022-12-16T23:22:11.811Z,61.47
2022-12-16T23:24:58.184Z,60.77
2022-12-16T23:27:44.821Z,58.77
2022-12-16T23:30:31.908Z,62.53
2022-12-16T23:33:19.392Z,61.20
2022-12-16T23:36:06.314Z,66.93
2022-12-16T23:39:03.018Z,66.73
2022-12-16T23:41:49.377Z,65.40
2022-12-16T23:44:36.054Z,64.57
2022-12-16T23:47:22.825Z,64.80
2022-12-16T23:50:11.153Z,65.80
2022-12-16T23:52:57.338Z,65.13
2022-12-16T23:55:43.703Z,68.17
2022-12-16T23:58:30.477Z,67.73
